createdAt,value
2018-06-24T00:01:49.840Z,11.10
2018-06-24T00:04:18.145Z,11.20
2018-06-24T00:06:46.468Z,11.20
2018-06-24T00:09:14.768Z,11.20
2018-06-24T00:11:43.113Z,11.00
2018-06-24T00:14:11.441Z,10.90
2018-06-24T00:16:39.775Z,11.00
2018-06-24T00:19:08.084Z,11.00
2018-06-24T00:21:36.416Z,11.00
2018-06-24T00:24:04.720Z,11.00
2018-06-24T00:26:33.074Z,11.10
2018-06-24T00:29:01.450Z,11.10
2018-06-24T00:31:29.868Z,11.10
2018-06-24T00:33:58.174Z,11.00
2018-06-24T00:36:26.506Z,11.10
2018-06-24T00:38:54.808Z,11.10
2018-06-24T00:41:23.128Z,11.00
2018-06-24T00:43:51.437Z,11.00
2018-06-24T00:46:19.764Z,11.10
2018-06-24T00:48:48.065Z,11.10
2018-06-24T00:51:16.393Z,11.20
2018-06-24T00:53:44.696Z,11.20
2018-06-24T00:56:13.032Z,11.40
2018-06-24T00:58:41.440Z,11.30
2018-06-24T01:01:09.833Z,11.30
2018-06-24T01:03:38.131Z,11.40
2018-06-24T01:06:06.465Z,11.30
2018-06-24T01:11:02.884Z,11.30
2018-06-24T01:13:31.188Z,11.30
2018-06-24T01:15:59.501Z,11.30
2018-06-24T01:18:27.820Z,11.30
2018-06-24T01:20:56.129Z,11.20
2018-06-24T01:23:24.459Z,11.30
2018-06-24T01:25:52.768Z,11.30
2018-06-24T01:28:21.092Z,11.30
2018-06-24T01:30:49.399Z,11.20
2018-06-24T01:33:17.724Z,11.30
2018-06-24T01:35:46.080Z,11.30
2018-06-24T01:38:14.405Z,11.30
2018-06-24T01:40:42.716Z,11.20
2018-06-24T01:43:11.033Z,11.20
2018-06-24T01:45:39.340Z,11.20
2018-06-24T01:48:07.656Z,11.30
2018-06-24T01:53:04.076Z,11.30
2018-06-24T01:55:32.396Z,11.20
2018-06-24T01:58:00.728Z,11.30
2018-06-24T02:00:29.028Z,11.20
2018-06-24T02:02:57.383Z,11.10
2018-06-24T02:05:25.680Z,11.10
2018-06-24T02:07:54.006Z,11.20
2018-06-24T02:10:22.304Z,11.20
2018-06-24T02:12:55.985Z,11.10
2018-06-24T02:15:24.297Z,11.10
2018-06-24T02:17:52.622Z,11.00
2018-06-24T02:20:20.931Z,11.00
2018-06-24T02:22:49.255Z,11.00
2018-06-24T02:25:17.557Z,11.00
2018-06-24T02:27:45.891Z,11.00
2018-06-24T02:30:14.196Z,11.10
2018-06-24T02:32:42.520Z,11.00
2018-06-24T02:35:10.815Z,11.00
2018-06-24T02:37:39.137Z,11.00
2018-06-24T02:40:07.449Z,11.00
2018-06-24T02:42:35.772Z,11.10
2018-06-24T02:45:04.272Z,11.10
2018-06-24T02:47:32.632Z,11.10
2018-06-24T02:50:00.940Z,11.10
2018-06-24T02:52:29.268Z,11.10
2018-06-24T02:54:57.564Z,11.10
2018-06-24T02:57:25.883Z,11.10
2018-06-24T02:59:54.180Z,11.10
2018-06-24T03:02:22.501Z,11.00
2018-06-24T03:04:50.844Z,11.00
2018-06-24T03:07:19.164Z,11.00
2018-06-24T03:09:47.474Z,10.90
2018-06-24T03:12:15.813Z,10.80
2018-06-24T03:14:44.121Z,10.70
2018-06-24T03:17:12.490Z,10.60
2018-06-24T03:19:40.860Z,10.60
2018-06-24T03:22:09.184Z,10.60
2018-06-24T03:24:37.481Z,10.70
2018-06-24T03:27:05.904Z,10.70
2018-06-24T03:29:34.256Z,10.70
2018-06-24T03:32:02.565Z,10.70
2018-06-24T03:34:30.896Z,10.60
2018-06-24T03:36:59.197Z,10.60
2018-06-24T03:39:27.520Z,10.70
2018-06-24T03:41:55.820Z,10.70
2018-06-24T03:44:24.144Z,10.80
2018-06-24T03:46:52.658Z,10.90
2018-06-24T03:49:21.089Z,10.90
2018-06-24T03:51:49.411Z,10.90
2018-06-24T03:54:17.748Z,10.80
2018-06-24T03:56:46.065Z,11.00
2018-06-24T03:59:14.388Z,11.10
2018-06-24T04:01:42.705Z,11.10
2018-06-24T04:04:11.024Z,11.20
2018-06-24T04:06:39.335Z,11.20
2018-06-24T04:09:08.280Z,11.10
2018-06-24T04:11:36.695Z,11.10
2018-06-24T04:16:38.598Z,11.10
2018-06-24T04:19:06.915Z,11.20
2018-06-24T04:21:35.229Z,11.20
2018-06-24T04:24:03.553Z,11.20
2018-06-24T04:26:31.960Z,11.40
2018-06-24T04:29:00.281Z,11.40
2018-06-24T04:31:28.588Z,11.20
2018-06-24T04:33:56.904Z,11.00
2018-06-24T04:36:25.220Z,11.10
2018-06-24T04:38:53.548Z,11.20
2018-06-24T04:41:21.905Z,11.30
2018-06-24T04:43:50.232Z,11.20
2018-06-24T04:46:18.537Z,11.30
2018-06-24T04:48:46.867Z,11.30
2018-06-24T04:51:15.178Z,11.40
2018-06-24T04:53:43.512Z,11.30
2018-06-24T04:56:11.820Z,11.40
2018-06-24T04:58:40.183Z,11.40
2018-06-24T05:01:08.484Z,11.50
2018-06-24T05:06:04.889Z,11.50
2018-06-24T05:08:33.220Z,11.50
2018-06-24T05:11:01.555Z,11.50
2018-06-24T05:13:29.877Z,11.50
2018-06-24T05:15:58.184Z,11.60
2018-06-24T05:18:26.508Z,11.50
2018-06-24T05:20:54.813Z,11.50
2018-06-24T05:23:23.143Z,11.50
2018-06-24T05:25:51.448Z,11.30
2018-06-24T05:28:19.782Z,11.40
2018-06-24T05:30:48.080Z,11.40
2018-06-24T05:33:16.402Z,11.50
2018-06-24T05:35:44.708Z,11.50
2018-06-24T05:38:13.041Z,11.50
2018-06-24T05:40:41.363Z,11.60
2018-06-24T05:43:09.763Z,11.60
2018-06-24T05:45:38.144Z,11.60
2018-06-24T05:48:06.556Z,11.50
2018-06-24T05:50:35.000Z,11.50
2018-06-24T05:53:03.384Z,11.50
2018-06-24T05:55:31.816Z,11.60
2018-06-24T05:58:00.112Z,11.60
2018-06-24T06:00:28.438Z,11.60
2018-06-24T06:07:52.880Z,11.70
2018-06-24T06:10:21.321Z,11.70
2018-06-24T06:12:49.556Z,11.60
2018-06-24T06:15:17.889Z,11.60
2018-06-24T06:17:46.208Z,11.60
2018-06-24T06:20:14.541Z,11.50
2018-06-24T06:22:43.051Z,11.50
2018-06-24T06:25:11.408Z,11.50
2018-06-24T06:27:39.743Z,11.70
2018-06-24T06:30:08.327Z,11.80
2018-06-24T06:32:38.149Z,11.90
2018-06-24T06:35:06.540Z,12.00
2018-06-24T06:37:34.996Z,12.10
2018-06-24T06:40:03.341Z,12.20
2018-06-24T06:42:31.744Z,12.30
2018-06-24T06:45:00.154Z,12.20
2018-06-24T06:47:28.424Z,12.20
2018-06-24T06:49:56.744Z,12.30
2018-06-24T06:52:25.048Z,12.20
2018-06-24T06:54:53.398Z,12.20
2018-06-24T06:57:21.697Z,12.30
2018-06-24T06:59:50.481Z,12.30
2018-06-24T07:02:18.968Z,12.40
2018-06-24T07:04:47.349Z,12.30
2018-06-24T07:07:15.669Z,12.40
2018-06-24T07:09:43.997Z,12.40
2018-06-24T07:12:12.320Z,12.40
2018-06-24T07:14:40.643Z,12.30
2018-06-24T07:17:08.957Z,12.50
2018-06-24T07:19:37.288Z,12.70
2018-06-24T07:22:05.655Z,12.90
2018-06-24T07:24:33.956Z,13.00
2018-06-24T07:29:30.420Z,12.90
2018-06-24T07:31:58.764Z,12.90
2018-06-24T07:34:27.084Z,13.00
2018-06-24T07:36:55.395Z,13.10
2018-06-24T07:39:23.833Z,13.10
2018-06-24T07:41:52.136Z,12.90
2018-06-24T07:44:20.451Z,12.90
2018-06-24T07:46:48.752Z,13.00
2018-06-24T07:49:17.073Z,13.00
2018-06-24T07:51:45.488Z,13.10
2018-06-24T07:54:13.888Z,13.30
2018-06-24T07:56:42.196Z,13.30
2018-06-24T07:59:10.505Z,13.30
2018-06-24T08:01:38.819Z,13.30
2018-06-24T08:04:07.233Z,13.40
2018-06-24T08:06:35.560Z,13.40
2018-06-24T08:09:05.704Z,13.50
2018-06-24T08:11:34.046Z,13.60
2018-06-24T08:14:02.341Z,13.60
2018-06-24T08:16:30.668Z,13.80
2018-06-24T08:18:59.167Z,14.00
2018-06-24T08:21:27.493Z,14.00
2018-06-24T08:23:55.896Z,14.00
2018-06-24T08:26:24.436Z,14.00
2018-06-24T08:28:52.738Z,14.20
2018-06-24T08:31:21.048Z,14.20
2018-06-24T08:33:49.362Z,14.00
2018-06-24T08:36:17.676Z,14.00
2018-06-24T08:38:45.975Z,14.10
2018-06-24T08:41:14.301Z,14.50
2018-06-24T08:43:42.601Z,14.60
2018-06-24T08:46:10.929Z,14.50
2018-06-24T08:48:39.220Z,14.30
2018-06-24T08:51:07.551Z,14.30
2018-06-24T08:53:35.884Z,14.30
2018-06-24T08:56:04.548Z,14.40
2018-06-24T08:58:32.876Z,14.50
2018-06-24T09:01:01.185Z,14.40
2018-06-24T09:03:29.500Z,14.60
2018-06-24T09:05:57.822Z,14.90
2018-06-24T09:08:26.129Z,15.10
2018-06-24T09:10:54.473Z,15.30
2018-06-24T09:15:50.915Z,14.90
2018-06-24T09:18:19.209Z,14.50
2018-06-24T09:20:47.525Z,14.50
2018-06-24T09:23:15.820Z,14.70
2018-06-24T09:25:44.132Z,14.90
2018-06-24T09:28:12.436Z,15.00
2018-06-24T09:30:40.817Z,14.80
2018-06-24T09:33:09.089Z,14.90
2018-06-24T09:35:37.408Z,14.80
2018-06-24T09:38:05.812Z,14.50
2018-06-24T09:40:34.161Z,14.60
2018-06-24T09:43:02.465Z,14.70
2018-06-24T09:45:30.786Z,14.80
2018-06-24T09:47:59.088Z,14.80
2018-06-24T09:50:27.407Z,15.00
2018-06-24T09:52:55.751Z,15.00
2018-06-24T09:55:24.048Z,14.70
2018-06-24T09:57:52.344Z,14.60
2018-06-24T10:00:21.631Z,14.80
2018-06-24T10:02:50.502Z,14.70
2018-06-24T10:05:18.893Z,14.70
2018-06-24T10:07:47.212Z,14.70
2018-06-24T10:10:15.547Z,14.60
2018-06-24T10:12:43.884Z,14.90
2018-06-24T10:15:12.177Z,14.80
2018-06-24T10:17:40.502Z,14.90
2018-06-24T10:20:08.807Z,14.80
2018-06-24T10:22:37.132Z,14.90
2018-06-24T10:25:05.448Z,15.20
2018-06-24T10:27:33.756Z,15.50
2018-06-24T10:30:02.128Z,15.50
2018-06-24T10:32:30.446Z,15.60
2018-06-24T10:34:58.744Z,15.10
2018-06-24T10:37:27.072Z,15.00
2018-06-24T10:39:55.464Z,15.10
2018-06-24T10:42:23.873Z,15.40
2018-06-24T10:44:52.980Z,15.60
2018-06-24T10:47:21.352Z,15.60
2018-06-24T10:49:51.076Z,15.30
2018-06-24T10:52:26.760Z,15.20
2018-06-24T10:54:55.073Z,15.10
2018-06-24T10:57:23.408Z,14.90
2018-06-24T10:59:51.740Z,14.80
2018-06-24T11:02:20.079Z,14.70
2018-06-24T11:07:16.453Z,14.80
2018-06-24T11:09:44.792Z,14.90
2018-06-24T11:12:13.148Z,14.80
2018-06-24T11:14:41.448Z,14.80
2018-06-24T11:17:09.932Z,14.80
2018-06-24T11:19:38.236Z,14.90
2018-06-24T11:22:06.556Z,15.20
2018-06-24T11:24:34.851Z,15.10
2018-06-24T11:27:03.177Z,15.30
2018-06-24T11:29:31.468Z,14.90
2018-06-24T11:31:59.788Z,15.10
2018-06-24T11:34:28.097Z,15.20
2018-06-24T11:36:56.459Z,15.20
2018-06-24T11:39:25.145Z,15.30
2018-06-24T11:41:53.477Z,15.30
2018-06-24T11:44:21.771Z,15.10
2018-06-24T11:46:50.089Z,15.00
2018-06-24T11:49:18.393Z,14.80
2018-06-24T11:51:46.712Z,14.60
2018-06-24T11:54:15.006Z,14.40
2018-06-24T11:56:43.325Z,14.40
2018-06-24T11:59:11.620Z,14.50
2018-06-24T12:01:39.936Z,14.40
2018-06-24T12:04:08.331Z,14.40
2018-06-24T12:06:37.255Z,14.30
2018-06-24T12:11:35.758Z,14.60
2018-06-24T12:14:04.185Z,14.80
2018-06-24T12:16:32.532Z,14.80
2018-06-24T12:19:00.868Z,14.90
2018-06-24T12:21:29.247Z,14.80
2018-06-24T12:23:57.897Z,14.80
2018-06-24T12:26:26.233Z,14.90
2018-06-24T12:28:54.893Z,15.10
2018-06-24T12:31:23.257Z,15.20
2018-06-24T12:33:51.575Z,15.30
2018-06-24T12:36:20.043Z,15.50
2018-06-24T12:38:48.360Z,15.30
2018-06-24T12:41:16.964Z,15.30
2018-06-24T12:43:45.692Z,15.30
2018-06-24T12:46:13.989Z,15.40
2018-06-24T12:48:42.308Z,15.50
2018-06-24T12:51:10.608Z,15.70
2018-06-24T12:53:39.412Z,16.00
2018-06-24T12:56:07.985Z,15.80
2018-06-24T12:58:36.356Z,15.70
2018-06-24T13:01:04.667Z,15.90
2018-06-24T13:03:32.984Z,16.30
2018-06-24T13:06:01.350Z,16.30
2018-06-24T13:08:29.707Z,16.10
2018-06-24T13:10:58.080Z,16.20
2018-06-24T13:13:26.600Z,16.30
2018-06-24T13:15:55.021Z,16.60
2018-06-24T13:18:23.499Z,17.00
2018-06-24T13:20:51.915Z,17.10
2018-06-24T13:23:20.505Z,16.50
2018-06-24T13:25:48.817Z,16.30
2018-06-24T13:28:17.301Z,16.40
2018-06-24T13:30:45.708Z,16.70
2018-06-24T13:33:14.033Z,17.00
2018-06-24T13:35:42.509Z,17.10
2018-06-24T13:38:11.657Z,17.30
2018-06-24T13:40:40.226Z,17.10
2018-06-24T13:43:08.609Z,16.40
2018-06-24T13:45:36.913Z,16.20
2018-06-24T13:48:05.900Z,16.00
2018-06-24T13:50:34.188Z,15.60
2018-06-24T13:53:02.508Z,15.60
2018-06-24T13:55:30.801Z,15.50
2018-06-24T13:57:59.321Z,15.60
2018-06-24T14:00:27.960Z,15.60
2018-06-24T14:02:57.026Z,15.70
2018-06-24T14:07:54.699Z,15.70
2018-06-24T14:10:23.440Z,15.60
2018-06-24T14:12:51.903Z,15.50
2018-06-24T14:15:22.044Z,15.30
2018-06-24T14:17:50.369Z,15.20
2018-06-24T14:20:19.943Z,15.10
2018-06-24T14:22:49.366Z,15.10
2018-06-24T14:25:17.695Z,15.10
2018-06-24T14:27:46.017Z,15.30
2018-06-24T14:30:14.309Z,15.60
2018-06-24T14:32:42.644Z,15.70
2018-06-24T14:35:11.553Z,16.00
2018-06-24T14:37:39.905Z,15.90
2018-06-24T14:40:08.210Z,15.60
2018-06-24T14:42:36.628Z,15.70
2018-06-24T14:45:06.348Z,15.90
2018-06-24T14:47:35.081Z,16.20
2018-06-24T14:50:03.416Z,16.20
2018-06-24T14:52:31.760Z,16.20
2018-06-24T14:55:00.066Z,16.20
2018-06-24T14:57:28.410Z,16.10
2018-06-24T14:59:57.839Z,16.10
2018-06-24T15:02:26.201Z,15.90
2018-06-24T15:04:54.520Z,16.00
2018-06-24T15:07:22.850Z,16.10
2018-06-24T15:09:51.173Z,15.80
2018-06-24T15:12:19.556Z,15.80
2018-06-24T15:14:48.612Z,15.80
2018-06-24T15:17:16.921Z,15.70
2018-06-24T15:19:46.141Z,15.60
2018-06-24T15:22:14.482Z,15.50
2018-06-24T15:24:43.272Z,15.50
2018-06-24T15:27:11.581Z,15.60
2018-06-24T15:29:39.904Z,15.40
2018-06-24T15:32:08.197Z,15.20
2018-06-24T15:34:37.556Z,15.30
2018-06-24T15:37:05.949Z,15.30
2018-06-24T15:39:34.281Z,15.30
2018-06-24T15:42:03.304Z,15.30
2018-06-24T15:44:31.740Z,15.30
2018-06-24T15:47:00.046Z,15.30
2018-06-24T15:49:28.370Z,15.20
2018-06-24T15:51:56.673Z,15.20
2018-06-24T15:54:24.989Z,15.10
2018-06-24T15:56:53.296Z,15.00
2018-06-24T15:59:21.612Z,14.70
2018-06-24T16:01:49.944Z,14.70
2018-06-24T16:04:18.261Z,14.60
2018-06-24T16:06:46.572Z,14.40
2018-06-24T16:09:15.923Z,14.10
2018-06-24T16:11:44.312Z,14.00
2018-06-24T16:14:12.635Z,13.70
2018-06-24T16:16:40.940Z,13.70
2018-06-24T16:19:09.301Z,13.60
2018-06-24T16:21:37.608Z,13.60
2018-06-24T16:24:05.948Z,13.60
2018-06-24T16:26:34.248Z,13.50
2018-06-24T16:29:02.584Z,13.50
2018-06-24T16:31:30.889Z,13.40
2018-06-24T16:33:59.220Z,13.30
2018-06-24T16:36:27.537Z,13.20
2018-06-24T16:38:55.889Z,13.20
2018-06-24T16:41:24.228Z,13.10
2018-06-24T16:43:52.621Z,13.10
2018-06-24T16:46:20.928Z,13.10
2018-06-24T16:48:49.260Z,13.10
2018-06-24T16:51:17.569Z,13.00
2018-06-24T16:53:45.898Z,13.00
2018-06-24T16:56:14.213Z,12.90
2018-06-24T16:58:42.544Z,13.10
2018-06-24T17:01:10.941Z,13.10
2018-06-24T17:03:39.278Z,13.10
2018-06-24T17:06:07.611Z,13.00
2018-06-24T17:08:35.933Z,13.00
2018-06-24T17:11:04.268Z,12.90
2018-06-24T17:13:32.636Z,12.90
2018-06-24T17:18:29.097Z,12.70
2018-06-24T17:20:57.428Z,12.70
2018-06-24T17:23:25.745Z,12.70
2018-06-24T17:25:54.080Z,12.70
2018-06-24T17:28:22.416Z,12.70
2018-06-24T17:30:50.745Z,12.70
2018-06-24T17:33:19.148Z,12.60
2018-06-24T17:35:47.482Z,12.70
2018-06-24T17:38:15.815Z,12.70
2018-06-24T17:40:44.152Z,12.50
2018-06-24T17:43:12.456Z,12.30
2018-06-24T17:45:40.834Z,12.20
2018-06-24T17:48:09.120Z,12.20
2018-06-24T17:50:37.444Z,12.20
2018-06-24T17:53:05.950Z,12.20
2018-06-24T17:55:34.297Z,12.30
2018-06-24T17:58:02.601Z,12.40
2018-06-24T18:00:30.953Z,12.50
2018-06-24T18:02:59.292Z,12.50
2018-06-24T18:05:27.636Z,12.50
2018-06-24T18:07:55.944Z,12.50
2018-06-24T18:10:24.384Z,12.40
2018-06-24T18:12:52.712Z,12.50
2018-06-24T18:15:21.033Z,12.40
2018-06-24T18:17:49.388Z,12.40
2018-06-24T18:20:17.719Z,12.30
2018-06-24T18:22:46.064Z,12.40
2018-06-24T18:25:14.389Z,12.40
2018-06-24T18:27:42.799Z,12.40
2018-06-24T18:30:11.140Z,12.10
2018-06-24T18:32:39.449Z,12.10
2018-06-24T18:35:07.807Z,12.10
2018-06-24T18:37:36.198Z,12.10
2018-06-24T18:40:04.540Z,12.20
2018-06-24T18:42:32.866Z,12.20
2018-06-24T18:45:01.205Z,12.20
2018-06-24T18:47:29.517Z,12.10
2018-06-24T18:49:57.840Z,12.10
2018-06-24T18:52:26.172Z,12.00
2018-06-24T18:54:54.511Z,12.00
2018-06-24T18:57:22.817Z,12.00
2018-06-24T18:59:51.145Z,12.00
2018-06-24T19:02:19.624Z,12.00
2018-06-24T19:04:47.872Z,12.00
2018-06-24T19:07:16.190Z,12.00
2018-06-24T19:09:44.523Z,12.00
2018-06-24T19:12:12.852Z,12.10
2018-06-24T19:14:41.180Z,12.00
2018-06-24T19:17:09.484Z,12.00
2018-06-24T19:19:38.008Z,12.00
2018-06-24T19:22:06.368Z,12.10
2018-06-24T19:24:34.694Z,12.10
2018-06-24T19:27:03.025Z,12.10
2018-06-24T19:29:31.332Z,12.10
2018-06-24T19:31:59.741Z,12.20
2018-06-24T19:34:28.041Z,12.30
2018-06-24T19:36:56.441Z,12.30
2018-06-24T19:39:25.057Z,12.30
2018-06-24T19:41:53.392Z,12.30
2018-06-24T19:44:21.713Z,12.30
2018-06-24T19:46:50.056Z,12.10
2018-06-24T19:49:18.377Z,12.10
2018-06-24T19:51:46.704Z,12.10
2018-06-24T19:54:15.019Z,12.00
2018-06-24T19:56:43.371Z,12.00
2018-06-24T19:59:11.741Z,12.00
2018-06-24T20:01:40.068Z,12.00
2018-06-24T20:04:08.385Z,12.00
2018-06-24T20:06:36.723Z,12.00
2018-06-24T20:09:07.715Z,12.00
2018-06-24T20:11:36.069Z,12.00
2018-06-24T20:14:04.406Z,11.90
2018-06-24T20:16:32.831Z,11.90
2018-06-24T20:19:01.115Z,12.00
2018-06-24T20:21:29.436Z,12.00
2018-06-24T20:23:57.748Z,12.00
2018-06-24T20:26:26.172Z,12.10
2018-06-24T20:28:54.504Z,12.20
2018-06-24T20:31:22.833Z,12.20
2018-06-24T20:33:51.136Z,12.30
2018-06-24T20:36:19.557Z,12.30
2018-06-24T20:38:47.864Z,12.30
2018-06-24T20:41:16.271Z,12.30
2018-06-24T20:43:44.594Z,12.20
2018-06-24T20:46:12.917Z,12.20
2018-06-24T20:48:41.231Z,12.30
2018-06-24T20:51:09.576Z,12.30
2018-06-24T20:56:06.041Z,12.10
2018-06-24T20:58:34.324Z,12.00
2018-06-24T21:01:02.660Z,12.00
2018-06-24T21:03:30.969Z,11.90
2018-06-24T21:05:59.313Z,11.90
2018-06-24T21:08:27.615Z,11.90
2018-06-24T21:10:55.985Z,11.90
2018-06-24T21:13:24.292Z,11.90
2018-06-24T21:15:52.616Z,11.90
2018-06-24T21:18:20.927Z,11.90
2018-06-24T21:20:49.261Z,11.90
2018-06-24T21:23:17.574Z,11.90
2018-06-24T21:25:45.904Z,11.90
2018-06-24T21:28:14.224Z,11.80
2018-06-24T21:30:42.552Z,11.80
2018-06-24T21:33:10.884Z,11.90
2018-06-24T21:35:39.213Z,11.90
2018-06-24T21:38:07.533Z,11.90
2018-06-24T21:40:35.839Z,12.00
2018-06-24T21:43:04.174Z,12.00
2018-06-24T21:45:32.473Z,11.90
2018-06-24T21:48:00.803Z,11.90
2018-06-24T21:50:29.114Z,11.90
2018-06-24T21:52:57.469Z,11.90
2018-06-24T21:55:25.775Z,11.90
2018-06-24T21:57:54.114Z,11.90
2018-06-24T22:00:22.661Z,11.80
2018-06-24T22:02:50.988Z,11.80
2018-06-24T22:05:19.297Z,11.90
2018-06-24T22:07:47.630Z,11.90
2018-06-24T22:10:15.936Z,11.90
2018-06-24T22:12:44.277Z,11.90
2018-06-24T22:15:12.593Z,12.00
2018-06-24T22:17:40.928Z,11.90
2018-06-24T22:20:09.248Z,12.00
2018-06-24T22:22:37.580Z,12.00
2018-06-24T22:25:05.948Z,12.00
2018-06-24T22:27:34.272Z,12.00
2018-06-24T22:30:02.613Z,12.00
2018-06-24T22:32:30.949Z,12.00
2018-06-24T22:34:59.256Z,12.00
2018-06-24T22:37:27.581Z,11.90
2018-06-24T22:39:55.880Z,11.90
2018-06-24T22:42:24.217Z,11.90
2018-06-24T22:44:52.532Z,11.90
2018-06-24T22:47:20.876Z,11.80
2018-06-24T22:49:49.188Z,11.90
2018-06-24T22:52:17.519Z,11.90
2018-06-24T22:54:45.828Z,12.00
2018-06-24T22:57:14.155Z,12.00
2018-06-24T23:00:08.460Z,11.90
2018-06-24T23:02:37.076Z,11.90
2018-06-24T23:05:05.490Z,11.90
2018-06-24T23:07:33.820Z,11.80
2018-06-24T23:10:02.432Z,11.70
2018-06-24T23:14:58.853Z,11.80
2018-06-24T23:17:27.180Z,11.70
2018-06-24T23:19:55.500Z,11.80
2018-06-24T23:22:23.830Z,11.80
2018-06-24T23:24:52.147Z,11.70
2018-06-24T23:27:20.480Z,11.80
2018-06-24T23:29:48.895Z,11.70
2018-06-24T23:32:17.344Z,11.70
2018-06-24T23:34:45.710Z,11.70
2018-06-24T23:37:14.044Z,11.70
2018-06-24T23:39:42.345Z,11.80
2018-06-24T23:42:10.681Z,11.80
2018-06-24T23:44:38.992Z,11.80
2018-06-24T23:47:07.316Z,11.80
2018-06-24T23:49:35.624Z,11.80
2018-06-24T23:52:03.956Z,11.90
2018-06-24T23:54:32.256Z,11.90
2018-06-24T23:57:00.584Z,11.90
2018-06-24T23:59:28.894Z,11.90
